sensor_id;sensor_type;location;lat;lon;timestamp;P1;durP1;ratioP1;P2;durP2;ratioP2
46721;SDS011;32455;43.430;23.136;2024-03-29T00:01:45;3.38;;;0.95;;
46721;SDS011;32455;43.430;23.136;2024-03-29T00:04:31;5.03;;;0.80;;
46721;SDS011;32455;43.430;23.136;2024-03-29T00:07:16;2.22;;;0.88;;
46721;SDS011;32455;43.430;23.136;2024-03-29T00:10:02;3.97;;;1.15;;
46721;SDS011;32455;43.430;23.136;2024-03-29T00:12:48;5.50;;;1.10;;
46721;SDS011;32455;43.430;23.136;2024-03-29T00:15:34;2.95;;;1.05;;
46721;SDS011;32455;43.430;23.136;2024-03-29T00:18:19;1.90;;;0.88;;
46721;SDS011;32455;43.430;23.136;2024-03-29T00:21:04;1.70;;;0.70;;
46721;SDS011;32455;43.430;23.136;2024-03-29T00:23:51;2.58;;;0.80;;
46721;SDS011;32455;43.430;23.136;2024-03-29T00:26:36;2.65;;;0.90;;
46721;SDS011;32455;43.430;23.136;2024-03-29T00:29:21;2.58;;;0.80;;
46721;SDS011;32455;43.430;23.136;2024-03-29T00:32:07;1.90;;;0.70;;
46721;SDS011;32455;43.430;23.136;2024-03-29T00:34:52;1.90;;;0.90;;
46721;SDS011;32455;43.430;23.136;2024-03-29T00:37:38;2.15;;;0.98;;
46721;SDS011;32455;43.430;23.136;2024-03-29T00:40:24;3.22;;;1.02;;
46721;SDS011;32455;43.430;23.136;2024-03-29T00:43:09;3.30;;;0.73;;
46721;SDS011;32455;43.430;23.136;2024-03-29T00:45:55;2.17;;;1.05;;
46721;SDS011;32455;43.430;23.136;2024-03-29T00:48:40;1.48;;;0.75;;
46721;SDS011;32455;43.430;23.136;2024-03-29T00:51:27;1.58;;;0.70;;
46721;SDS011;32455;43.430;23.136;2024-03-29T00:54:12;1.30;;;0.57;;
46721;SDS011;32455;43.430;23.136;2024-03-29T00:56:57;2.50;;;0.77;;
46721;SDS011;32455;43.430;23.136;2024-03-29T00:59:43;4.32;;;1.30;;
46721;SDS011;32455;43.430;23.136;2024-03-29T01:02:29;3.05;;;1.33;;
46721;SDS011;32455;43.430;23.136;2024-03-29T01:05:14;1.52;;;0.93;;
46721;SDS011;32455;43.430;23.136;2024-03-29T01:08:00;1.92;;;0.70;;
46721;SDS011;32455;43.430;23.136;2024-03-29T01:10:45;2.75;;;1.00;;
46721;SDS011;32455;43.430;23.136;2024-03-29T01:13:31;2.30;;;0.77;;
46721;SDS011;32455;43.430;23.136;2024-03-29T01:16:16;1.70;;;1.10;;
46721;SDS011;32455;43.430;23.136;2024-03-29T01:19:02;5.43;;;1.00;;
46721;SDS011;32455;43.430;23.136;2024-03-29T01:21:47;2.30;;;0.80;;
46721;SDS011;32455;43.430;23.136;2024-03-29T01:24:32;2.08;;;0.75;;
46721;SDS011;32455;43.430;23.136;2024-03-29T01:27:18;1.45;;;0.80;;
46721;SDS011;32455;43.430;23.136;2024-03-29T01:30:03;2.42;;;1.05;;
46721;SDS011;32455;43.430;23.136;2024-03-29T01:32:49;3.13;;;1.02;;
46721;SDS011;32455;43.430;23.136;2024-03-29T01:35:34;1.15;;;0.82;;
46721;SDS011;32455;43.430;23.136;2024-03-29T01:38:20;3.33;;;0.90;;
46721;SDS011;32455;43.430;23.136;2024-03-29T01:41:07;2.85;;;0.82;;
46721;SDS011;32455;43.430;23.136;2024-03-29T01:43:53;1.80;;;0.90;;
46721;SDS011;32455;43.430;23.136;2024-03-29T01:46:39;1.83;;;1.13;;
46721;SDS011;32455;43.430;23.136;2024-03-29T01:49:24;2.20;;;0.80;;
46721;SDS011;32455;43.430;23.136;2024-03-29T01:52:10;1.42;;;0.80;;
46721;SDS011;32455;43.430;23.136;2024-03-29T01:54:57;3.80;;;1.00;;
46721;SDS011;32455;43.430;23.136;2024-03-29T01:57:42;2.80;;;0.90;;
46721;SDS011;32455;43.430;23.136;2024-03-29T02:00:28;2.67;;;0.68;;
46721;SDS011;32455;43.430;23.136;2024-03-29T02:03:15;2.15;;;1.05;;
46721;SDS011;32455;43.430;23.136;2024-03-29T02:06:01;2.67;;;0.88;;
46721;SDS011;32455;43.430;23.136;2024-03-29T02:08:47;1.73;;;1.00;;
46721;SDS011;32455;43.430;23.136;2024-03-29T02:11:35;4.35;;;1.10;;
46721;SDS011;32455;43.430;23.136;2024-03-29T02:14:20;2.42;;;1.00;;
46721;SDS011;32455;43.430;23.136;2024-03-29T02:17:06;2.92;;;1.00;;
46721;SDS011;32455;43.430;23.136;2024-03-29T02:19:51;4.13;;;0.90;;
46721;SDS011;32455;43.430;23.136;2024-03-29T02:22:41;4.28;;;1.00;;
46721;SDS011;32455;43.430;23.136;2024-03-29T02:25:32;1.13;;;0.80;;
46721;SDS011;32455;43.430;23.136;2024-03-29T02:28:18;2.20;;;1.15;;
46721;SDS011;32455;43.430;23.136;2024-03-29T02:31:06;3.45;;;0.80;;
46721;SDS011;32455;43.430;23.136;2024-03-29T02:33:53;3.03;;;1.30;;
46721;SDS011;32455;43.430;23.136;2024-03-29T02:36:38;2.97;;;1.05;;
46721;SDS011;32455;43.430;23.136;2024-03-29T02:39:23;2.00;;;0.80;;
46721;SDS011;32455;43.430;23.136;2024-03-29T02:42:08;4.13;;;0.75;;
46721;SDS011;32455;43.430;23.136;2024-03-29T02:44:54;1.83;;;0.77;;
46721;SDS011;32455;43.430;23.136;2024-03-29T02:47:40;2.78;;;0.70;;
46721;SDS011;32455;43.430;23.136;2024-03-29T02:50:25;2.72;;;1.15;;
46721;SDS011;32455;43.430;23.136;2024-03-29T02:53:10;1.77;;;1.00;;
46721;SDS011;32455;43.430;23.136;2024-03-29T02:55:56;4.45;;;0.90;;
46721;SDS011;32455;43.430;23.136;2024-03-29T02:58:41;2.95;;;1.00;;
46721;SDS011;32455;43.430;23.136;2024-03-29T03:01:26;3.97;;;0.80;;
46721;SDS011;32455;43.430;23.136;2024-03-29T03:04:11;3.13;;;1.17;;
46721;SDS011;32455;43.430;23.136;2024-03-29T03:06:57;2.33;;;0.80;;
46721;SDS011;32455;43.430;23.136;2024-03-29T03:10:03;5.43;;;1.02;;
46721;SDS011;32455;43.430;23.136;2024-03-29T03:13:07;3.33;;;1.10;;
46721;SDS011;32455;43.430;23.136;2024-03-29T03:15:52;2.92;;;0.80;;
46721;SDS011;32455;43.430;23.136;2024-03-29T03:18:38;3.10;;;0.75;;
46721;SDS011;32455;43.430;23.136;2024-03-29T03:21:23;1.95;;;0.82;;
46721;SDS011;32455;43.430;23.136;2024-03-29T03:24:08;2.50;;;0.75;;
46721;SDS011;32455;43.430;23.136;2024-03-29T03:26:54;2.00;;;0.80;;
46721;SDS011;32455;43.430;23.136;2024-03-29T03:29:39;2.75;;;0.70;;
46721;SDS011;32455;43.430;23.136;2024-03-29T03:32:25;2.13;;;0.88;;
46721;SDS011;32455;43.430;23.136;2024-03-29T03:35:10;3.33;;;1.50;;
46721;SDS011;32455;43.430;23.136;2024-03-29T03:37:56;3.55;;;0.93;;
46721;SDS011;32455;43.430;23.136;2024-03-29T03:40:41;1.75;;;0.60;;
46721;SDS011;32455;43.430;23.136;2024-03-29T03:43:26;2.97;;;0.90;;
46721;SDS011;32455;43.430;23.136;2024-03-29T03:46:12;1.92;;;0.68;;
46721;SDS011;32455;43.430;23.136;2024-03-29T03:48:58;3.40;;;0.68;;
46721;SDS011;32455;43.430;23.136;2024-03-29T03:51:43;3.10;;;0.93;;
46721;SDS011;32455;43.430;23.136;2024-03-29T03:54:28;1.73;;;1.10;;
46721;SDS011;32455;43.430;23.136;2024-03-29T03:57:13;1.50;;;1.23;;
46721;SDS011;32455;43.430;23.136;2024-03-29T03:59:59;2.33;;;0.90;;
46721;SDS011;32455;43.430;23.136;2024-03-29T04:02:48;1.50;;;1.30;;
46721;SDS011;32455;43.430;23.136;2024-03-29T04:05:37;3.65;;;1.02;;
46721;SDS011;32455;43.430;23.136;2024-03-29T04:08:22;2.53;;;0.98;;
46721;SDS011;32455;43.430;23.136;2024-03-29T04:11:08;5.22;;;1.02;;
46721;SDS011;32455;43.430;23.136;2024-03-29T04:13:53;6.53;;;1.52;;
46721;SDS011;32455;43.430;23.136;2024-03-29T04:16:39;4.72;;;1.15;;
46721;SDS011;32455;43.430;23.136;2024-03-29T04:19:24;4.07;;;1.38;;
46721;SDS011;32455;43.430;23.136;2024-03-29T04:22:09;2.92;;;1.20;;
46721;SDS011;32455;43.430;23.136;2024-03-29T04:24:55;3.85;;;1.08;;
46721;SDS011;32455;43.430;23.136;2024-03-29T04:27:40;3.30;;;1.50;;
46721;SDS011;32455;43.430;23.136;2024-03-29T04:30:27;6.38;;;3.70;;
46721;SDS011;32455;43.430;23.136;2024-03-29T04:33:12;8.63;;;4.70;;
46721;SDS011;32455;43.430;23.136;2024-03-29T04:35:59;4.47;;;2.90;;
46721;SDS011;32455;43.430;23.136;2024-03-29T04:38:45;3.05;;;1.10;;
46721;SDS011;32455;43.430;23.136;2024-03-29T04:41:30;1.65;;;1.20;;
46721;SDS011;32455;43.430;23.136;2024-03-29T04:44:25;1.70;;;1.15;;
46721;SDS011;32455;43.430;23.136;2024-03-29T04:47:12;3.22;;;1.02;;
46721;SDS011;32455;43.430;23.136;2024-03-29T04:49:58;2.42;;;1.00;;
46721;SDS011;32455;43.430;23.136;2024-03-29T04:52:43;2.15;;;0.90;;
46721;SDS011;32455;43.430;23.136;2024-03-29T04:55:28;4.85;;;1.23;;
46721;SDS011;32455;43.430;23.136;2024-03-29T04:58:13;3.08;;;0.82;;
46721;SDS011;32455;43.430;23.136;2024-03-29T05:00:58;3.05;;;1.08;;
46721;SDS011;32455;43.430;23.136;2024-03-29T05:03:43;1.80;;;0.80;;
46721;SDS011;32455;43.430;23.136;2024-03-29T05:06:29;1.75;;;0.60;;
46721;SDS011;32455;43.430;23.136;2024-03-29T05:09:14;2.22;;;0.80;;
46721;SDS011;32455;43.430;23.136;2024-03-29T05:11:59;4.90;;;0.90;;
46721;SDS011;32455;43.430;23.136;2024-03-29T05:14:44;3.22;;;0.80;;
46721;SDS011;32455;43.430;23.136;2024-03-29T05:17:29;3.85;;;1.10;;
46721;SDS011;32455;43.430;23.136;2024-03-29T05:20:15;0.90;;;0.70;;
46721;SDS011;32455;43.430;23.136;2024-03-29T05:23:00;2.75;;;0.82;;
46721;SDS011;32455;43.430;23.136;2024-03-29T05:25:46;1.10;;;0.70;;
46721;SDS011;32455;43.430;23.136;2024-03-29T05:28:34;2.38;;;0.77;;
46721;SDS011;32455;43.430;23.136;2024-03-29T05:31:19;4.50;;;0.82;;
46721;SDS011;32455;43.430;23.136;2024-03-29T05:34:05;4.93;;;0.98;;
46721;SDS011;32455;43.430;23.136;2024-03-29T05:36:51;3.70;;;1.20;;
46721;SDS011;32455;43.430;23.136;2024-03-29T05:39:36;2.42;;;0.80;;
46721;SDS011;32455;43.430;23.136;2024-03-29T05:42:22;3.15;;;0.70;;
46721;SDS011;32455;43.430;23.136;2024-03-29T05:45:23;1.73;;;0.90;;
46721;SDS011;32455;43.430;23.136;2024-03-29T05:48:13;2.75;;;0.68;;
46721;SDS011;32455;43.430;23.136;2024-03-29T05:50:59;1.85;;;0.75;;
46721;SDS011;32455;43.430;23.136;2024-03-29T05:53:45;4.88;;;1.02;;
46721;SDS011;32455;43.430;23.136;2024-03-29T05:56:30;6.18;;;1.27;;
46721;SDS011;32455;43.430;23.136;2024-03-29T05:59:16;3.88;;;0.85;;
46721;SDS011;32455;43.430;23.136;2024-03-29T06:02:01;3.50;;;0.90;;
46721;SDS011;32455;43.430;23.136;2024-03-29T06:04:47;2.47;;;1.08;;
46721;SDS011;32455;43.430;23.136;2024-03-29T06:07:33;3.78;;;1.00;;
46721;SDS011;32455;43.430;23.136;2024-03-29T06:10:18;1.45;;;0.80;;
46721;SDS011;32455;43.430;23.136;2024-03-29T06:13:03;1.83;;;0.80;;
46721;SDS011;32455;43.430;23.136;2024-03-29T06:15:54;3.95;;;0.90;;
46721;SDS011;32455;43.430;23.136;2024-03-29T06:18:58;1.92;;;1.13;;
46721;SDS011;32455;43.430;23.136;2024-03-29T06:21:43;2.50;;;1.17;;
46721;SDS011;32455;43.430;23.136;2024-03-29T06:24:29;3.17;;;1.23;;
46721;SDS011;32455;43.430;23.136;2024-03-29T06:27:16;2.85;;;1.05;;
46721;SDS011;32455;43.430;23.136;2024-03-29T06:30:07;2.90;;;1.35;;
46721;SDS011;32455;43.430;23.136;2024-03-29T06:32:53;5.38;;;1.45;;
46721;SDS011;32455;43.430;23.136;2024-03-29T06:35:38;1.30;;;0.82;;
46721;SDS011;32455;43.430;23.136;2024-03-29T06:38:24;2.95;;;1.25;;
46721;SDS011;32455;43.430;23.136;2024-03-29T06:41:09;3.30;;;1.10;;
46721;SDS011;32455;43.430;23.136;2024-03-29T06:43:55;3.53;;;1.23;;
46721;SDS011;32455;43.430;23.136;2024-03-29T06:46:40;3.60;;;1.00;;
46721;SDS011;32455;43.430;23.136;2024-03-29T06:49:26;5.25;;;1.20;;
46721;SDS011;32455;43.430;23.136;2024-03-29T06:52:11;2.70;;;1.30;;
46721;SDS011;32455;43.430;23.136;2024-03-29T06:54:57;3.17;;;1.13;;
46721;SDS011;32455;43.430;23.136;2024-03-29T06:57:42;4.50;;;1.20;;
46721;SDS011;32455;43.430;23.136;2024-03-29T07:00:29;3.85;;;1.20;;
46721;SDS011;32455;43.430;23.136;2024-03-29T07:03:15;4.07;;;1.20;;
46721;SDS011;32455;43.430;23.136;2024-03-29T07:06:01;3.33;;;0.95;;
46721;SDS011;32455;43.430;23.136;2024-03-29T07:08:47;2.97;;;0.90;;
46721;SDS011;32455;43.430;23.136;2024-03-29T07:11:33;3.60;;;1.10;;
46721;SDS011;32455;43.430;23.136;2024-03-29T07:14:18;3.55;;;1.52;;
46721;SDS011;32455;43.430;23.136;2024-03-29T07:17:04;3.42;;;1.10;;
46721;SDS011;32455;43.430;23.136;2024-03-29T07:19:49;3.90;;;1.13;;
46721;SDS011;32455;43.430;23.136;2024-03-29T07:22:35;1.98;;;0.95;;
46721;SDS011;32455;43.430;23.136;2024-03-29T07:25:20;4.95;;;1.38;;
46721;SDS011;32455;43.430;23.136;2024-03-29T07:28:05;2.88;;;1.27;;
46721;SDS011;32455;43.430;23.136;2024-03-29T07:30:51;4.78;;;1.00;;
46721;SDS011;32455;43.430;23.136;2024-03-29T07:33:38;5.22;;;1.48;;
46721;SDS011;32455;43.430;23.136;2024-03-29T07:36:23;4.72;;;1.50;;
46721;SDS011;32455;43.430;23.136;2024-03-29T07:39:11;4.55;;;1.50;;
46721;SDS011;32455;43.430;23.136;2024-03-29T07:41:56;6.53;;;1.30;;
46721;SDS011;32455;43.430;23.136;2024-03-29T07:44:41;3.15;;;1.15;;
46721;SDS011;32455;43.430;23.136;2024-03-29T07:47:26;3.70;;;1.30;;
46721;SDS011;32455;43.430;23.136;2024-03-29T07:50:12;3.92;;;1.05;;
46721;SDS011;32455;43.430;23.136;2024-03-29T07:52:57;4.50;;;1.27;;
46721;SDS011;32455;43.430;23.136;2024-03-29T07:55:42;4.47;;;1.20;;
46721;SDS011;32455;43.430;23.136;2024-03-29T07:58:28;5.68;;;1.60;;
46721;SDS011;32455;43.430;23.136;2024-03-29T08:01:22;5.43;;;1.45;;
46721;SDS011;32455;43.430;23.136;2024-03-29T08:04:08;2.10;;;1.27;;
46721;SDS011;32455;43.430;23.136;2024-03-29T08:06:53;4.53;;;1.48;;
46721;SDS011;32455;43.430;23.136;2024-03-29T08:09:39;4.60;;;1.63;;
46721;SDS011;32455;43.430;23.136;2024-03-29T08:12:25;3.25;;;2.08;;
46721;SDS011;32455;43.430;23.136;2024-03-29T08:15:10;4.18;;;1.48;;
46721;SDS011;32455;43.430;23.136;2024-03-29T08:17:55;6.45;;;1.55;;
46721;SDS011;32455;43.430;23.136;2024-03-29T08:20:40;3.20;;;1.23;;
46721;SDS011;32455;43.430;23.136;2024-03-29T08:23:26;3.92;;;1.30;;
46721;SDS011;32455;43.430;23.136;2024-03-29T08:26:12;3.90;;;1.35;;
46721;SDS011;32455;43.430;23.136;2024-03-29T08:28:58;4.85;;;1.70;;
46721;SDS011;32455;43.430;23.136;2024-03-29T08:31:43;4.90;;;1.92;;
46721;SDS011;32455;43.430;23.136;2024-03-29T08:34:29;6.22;;;1.70;;
46721;SDS011;32455;43.430;23.136;2024-03-29T08:37:19;3.63;;;1.02;;
46721;SDS011;32455;43.430;23.136;2024-03-29T08:40:05;5.30;;;1.67;;
46721;SDS011;32455;43.430;23.136;2024-03-29T08:42:51;5.13;;;1.60;;
46721;SDS011;32455;43.430;23.136;2024-03-29T08:45:36;4.32;;;1.50;;
46721;SDS011;32455;43.430;23.136;2024-03-29T08:48:26;4.82;;;1.00;;
46721;SDS011;32455;43.430;23.136;2024-03-29T08:51:11;2.38;;;1.27;;
46721;SDS011;32455;43.430;23.136;2024-03-29T08:53:57;5.05;;;1.30;;
46721;SDS011;32455;43.430;23.136;2024-03-29T08:56:42;3.67;;;1.23;;
46721;SDS011;32455;43.430;23.136;2024-03-29T08:59:27;3.85;;;1.35;;
46721;SDS011;32455;43.430;23.136;2024-03-29T09:02:11;3.17;;;1.10;;
46721;SDS011;32455;43.430;23.136;2024-03-29T09:04:57;4.22;;;1.30;;
46721;SDS011;32455;43.430;23.136;2024-03-29T09:07:42;6.18;;;2.08;;
46721;SDS011;32455;43.430;23.136;2024-03-29T09:10:27;4.97;;;1.52;;
46721;SDS011;32455;43.430;23.136;2024-03-29T09:13:12;4.35;;;1.10;;
46721;SDS011;32455;43.430;23.136;2024-03-29T09:15:58;3.42;;;1.55;;
46721;SDS011;32455;43.430;23.136;2024-03-29T09:18:43;6.20;;;1.25;;
46721;SDS011;32455;43.430;23.136;2024-03-29T09:22:34;2.65;;;1.00;;
46721;SDS011;32455;43.430;23.136;2024-03-29T09:25:20;4.53;;;1.23;;
46721;SDS011;32455;43.430;23.136;2024-03-29T09:28:05;2.20;;;1.02;;
46721;SDS011;32455;43.430;23.136;2024-03-29T09:30:57;3.45;;;1.33;;
46721;SDS011;32455;43.430;23.136;2024-03-29T09:36:32;3.63;;;1.02;;
46721;SDS011;32455;43.430;23.136;2024-03-29T09:39:17;6.25;;;1.52;;
46721;SDS011;32455;43.430;23.136;2024-03-29T09:42:02;4.53;;;1.30;;
46721;SDS011;32455;43.430;23.136;2024-03-29T09:44:48;3.42;;;1.13;;
46721;SDS011;32455;43.430;23.136;2024-03-29T09:47:36;2.28;;;1.05;;
46721;SDS011;32455;43.430;23.136;2024-03-29T09:50:21;3.83;;;1.05;;
46721;SDS011;32455;43.430;23.136;2024-03-29T09:53:06;5.90;;;1.20;;
46721;SDS011;32455;43.430;23.136;2024-03-29T09:55:53;2.53;;;1.02;;
46721;SDS011;32455;43.430;23.136;2024-03-29T09:58:38;3.42;;;1.25;;
46721;SDS011;32455;43.430;23.136;2024-03-29T10:01:24;4.43;;;1.60;;
46721;SDS011;32455;43.430;23.136;2024-03-29T10:04:09;3.67;;;1.20;;
46721;SDS011;32455;43.430;23.136;2024-03-29T10:06:57;4.53;;;1.50;;
46721;SDS011;32455;43.430;23.136;2024-03-29T10:09:43;4.70;;;1.27;;
46721;SDS011;32455;43.430;23.136;2024-03-29T10:12:30;4.53;;;1.25;;
46721;SDS011;32455;43.430;23.136;2024-03-29T10:15:15;3.58;;;1.40;;
46721;SDS011;32455;43.430;23.136;2024-03-29T10:18:02;4.47;;;1.55;;
46721;SDS011;32455;43.430;23.136;2024-03-29T10:20:57;3.95;;;1.35;;
46721;SDS011;32455;43.430;23.136;2024-03-29T10:23:47;3.95;;;1.25;;
46721;SDS011;32455;43.430;23.136;2024-03-29T10:26:33;5.70;;;1.70;;
46721;SDS011;32455;43.430;23.136;2024-03-29T10:29:18;6.05;;;2.15;;
46721;SDS011;32455;43.430;23.136;2024-03-29T10:32:04;6.07;;;1.92;;
46721;SDS011;32455;43.430;23.136;2024-03-29T10:34:50;2.95;;;1.25;;
46721;SDS011;32455;43.430;23.136;2024-03-29T10:37:36;4.40;;;1.27;;
46721;SDS011;32455;43.430;23.136;2024-03-29T10:40:23;5.07;;;1.65;;
46721;SDS011;32455;43.430;23.136;2024-03-29T10:43:10;3.65;;;1.38;;
46721;SDS011;32455;43.430;23.136;2024-03-29T10:46:01;6.45;;;1.40;;
46721;SDS011;32455;43.430;23.136;2024-03-29T10:48:47;4.03;;;1.20;;
46721;SDS011;32455;43.430;23.136;2024-03-29T10:51:37;3.70;;;1.38;;
46721;SDS011;32455;43.430;23.136;2024-03-29T10:54:24;4.80;;;1.33;;
46721;SDS011;32455;43.430;23.136;2024-03-29T10:57:12;5.60;;;1.42;;
46721;SDS011;32455;43.430;23.136;2024-03-29T11:00:12;3.85;;;1.33;;
46721;SDS011;32455;43.430;23.136;2024-03-29T11:06:05;5.53;;;1.77;;
46721;SDS011;32455;43.430;23.136;2024-03-29T11:08:51;6.15;;;1.55;;
46721;SDS011;32455;43.430;23.136;2024-03-29T11:11:40;2.53;;;1.23;;
46721;SDS011;32455;43.430;23.136;2024-03-29T11:14:33;3.45;;;1.25;;
46721;SDS011;32455;43.430;23.136;2024-03-29T11:17:22;4.65;;;1.40;;
46721;SDS011;32455;43.430;23.136;2024-03-29T11:20:08;5.03;;;1.63;;
46721;SDS011;32455;43.430;23.136;2024-03-29T11:22:55;5.68;;;1.40;;
46721;SDS011;32455;43.430;23.136;2024-03-29T11:25:44;2.97;;;1.38;;
46721;SDS011;32455;43.430;23.136;2024-03-29T11:28:31;4.05;;;1.40;;
46721;SDS011;32455;43.430;23.136;2024-03-29T11:31:22;5.13;;;1.58;;
46721;SDS011;32455;43.430;23.136;2024-03-29T11:34:09;3.05;;;1.40;;
46721;SDS011;32455;43.430;23.136;2024-03-29T11:36:55;3.70;;;1.50;;
46721;SDS011;32455;43.430;23.136;2024-03-29T11:39:40;2.42;;;1.23;;
46721;SDS011;32455;43.430;23.136;2024-03-29T11:42:51;4.22;;;1.17;;
46721;SDS011;32455;43.430;23.136;2024-03-29T11:45:37;7.15;;;1.67;;
46721;SDS011;32455;43.430;23.136;2024-03-29T11:48:25;3.22;;;1.38;;
46721;SDS011;32455;43.430;23.136;2024-03-29T11:51:13;4.90;;;2.55;;
46721;SDS011;32455;43.430;23.136;2024-03-29T11:54:02;6.63;;;1.60;;
46721;SDS011;32455;43.430;23.136;2024-03-29T11:56:47;5.82;;;1.23;;
46721;SDS011;32455;43.430;23.136;2024-03-29T11:59:32;4.20;;;1.60;;
46721;SDS011;32455;43.430;23.136;2024-03-29T12:02:18;7.22;;;1.73;;
46721;SDS011;32455;43.430;23.136;2024-03-29T12:05:07;6.90;;;1.30;;
46721;SDS011;32455;43.430;23.136;2024-03-29T12:07:56;7.45;;;1.23;;
46721;SDS011;32455;43.430;23.136;2024-03-29T12:10:42;2.63;;;1.23;;
46721;SDS011;32455;43.430;23.136;2024-03-29T12:13:30;4.25;;;1.33;;
46721;SDS011;32455;43.430;23.136;2024-03-29T12:16:16;4.43;;;1.02;;
46721;SDS011;32455;43.430;23.136;2024-03-29T12:19:01;3.38;;;1.00;;
46721;SDS011;32455;43.430;23.136;2024-03-29T12:21:47;3.15;;;1.02;;
46721;SDS011;32455;43.430;23.136;2024-03-29T12:24:32;3.22;;;1.20;;
46721;SDS011;32455;43.430;23.136;2024-03-29T12:27:18;5.53;;;1.50;;
46721;SDS011;32455;43.430;23.136;2024-03-29T12:30:04;3.63;;;1.10;;
46721;SDS011;32455;43.430;23.136;2024-03-29T12:33:02;2.88;;;1.13;;
46721;SDS011;32455;43.430;23.136;2024-03-29T12:35:50;3.20;;;1.27;;
46721;SDS011;32455;43.430;23.136;2024-03-29T12:38:38;4.55;;;1.55;;
46721;SDS011;32455;43.430;23.136;2024-03-29T12:41:28;5.05;;;1.20;;
46721;SDS011;32455;43.430;23.136;2024-03-29T12:44:17;5.60;;;1.48;;
46721;SDS011;32455;43.430;23.136;2024-03-29T12:47:02;3.42;;;1.25;;
46721;SDS011;32455;43.430;23.136;2024-03-29T12:49:49;4.05;;;1.20;;
46721;SDS011;32455;43.430;23.136;2024-03-29T12:52:40;2.72;;;1.10;;
46721;SDS011;32455;43.430;23.136;2024-03-29T12:55:27;3.50;;;1.10;;
46721;SDS011;32455;43.430;23.136;2024-03-29T13:01:06;4.60;;;2.08;;
46721;SDS011;32455;43.430;23.136;2024-03-29T13:03:52;1.98;;;1.08;;
46721;SDS011;32455;43.430;23.136;2024-03-29T13:06:37;5.22;;;1.75;;
46721;SDS011;32455;43.430;23.136;2024-03-29T13:09:22;3.50;;;1.20;;
46721;SDS011;32455;43.430;23.136;2024-03-29T13:12:08;2.35;;;1.10;;
46721;SDS011;32455;43.430;23.136;2024-03-29T13:14:53;3.60;;;0.90;;
46721;SDS011;32455;43.430;23.136;2024-03-29T13:17:39;6.13;;;1.20;;
46721;SDS011;32455;43.430;23.136;2024-03-29T13:20:23;2.65;;;1.20;;
46721;SDS011;32455;43.430;23.136;2024-03-29T13:23:09;6.13;;;1.40;;
46721;SDS011;32455;43.430;23.136;2024-03-29T13:25:55;6.38;;;1.40;;
46721;SDS011;32455;43.430;23.136;2024-03-29T13:28:42;4.78;;;1.05;;
46721;SDS011;32455;43.430;23.136;2024-03-29T13:31:28;6.15;;;1.60;;
46721;SDS011;32455;43.430;23.136;2024-03-29T13:34:14;2.83;;;1.33;;
46721;SDS011;32455;43.430;23.136;2024-03-29T13:37:02;3.40;;;1.25;;
46721;SDS011;32455;43.430;23.136;2024-03-29T13:39:48;5.20;;;1.70;;
46721;SDS011;32455;43.430;23.136;2024-03-29T13:42:34;4.15;;;1.27;;
46721;SDS011;32455;43.430;23.136;2024-03-29T13:45:20;3.38;;;1.42;;
46721;SDS011;32455;43.430;23.136;2024-03-29T13:48:05;5.22;;;1.65;;
46721;SDS011;32455;43.430;23.136;2024-03-29T13:50:51;5.68;;;1.67;;
46721;SDS011;32455;43.430;23.136;2024-03-29T13:53:37;5.25;;;1.83;;
46721;SDS011;32455;43.430;23.136;2024-03-29T13:56:22;5.47;;;1.40;;
46721;SDS011;32455;43.430;23.136;2024-03-29T13:59:07;4.15;;;1.58;;
46721;SDS011;32455;43.430;23.136;2024-03-29T14:01:53;4.75;;;1.48;;
46721;SDS011;32455;43.430;23.136;2024-03-29T14:04:39;7.03;;;1.30;;
46721;SDS011;32455;43.430;23.136;2024-03-29T14:07:25;3.63;;;1.35;;
46721;SDS011;32455;43.430;23.136;2024-03-29T14:10:11;3.33;;;1.10;;
46721;SDS011;32455;43.430;23.136;2024-03-29T14:12:56;4.60;;;1.65;;
46721;SDS011;32455;43.430;23.136;2024-03-29T14:15:41;7.05;;;1.63;;
46721;SDS011;32455;43.430;23.136;2024-03-29T14:18:27;5.75;;;1.48;;
46721;SDS011;32455;43.430;23.136;2024-03-29T14:21:12;5.10;;;1.48;;
46721;SDS011;32455;43.430;23.136;2024-03-29T14:23:58;3.83;;;1.55;;
46721;SDS011;32455;43.430;23.136;2024-03-29T14:26:43;3.85;;;1.20;;
46721;SDS011;32455;43.430;23.136;2024-03-29T14:29:29;4.68;;;1.15;;
46721;SDS011;32455;43.430;23.136;2024-03-29T14:32:18;4.32;;;1.65;;
46721;SDS011;32455;43.430;23.136;2024-03-29T14:35:07;3.30;;;1.23;;
46721;SDS011;32455;43.430;23.136;2024-03-29T14:37:55;6.40;;;1.30;;
46721;SDS011;32455;43.430;23.136;2024-03-29T14:40:40;3.15;;;1.40;;
46721;SDS011;32455;43.430;23.136;2024-03-29T14:43:25;5.28;;;1.15;;
46721;SDS011;32455;43.430;23.136;2024-03-29T14:46:10;3.08;;;1.23;;
46721;SDS011;32455;43.430;23.136;2024-03-29T14:48:54;3.47;;;1.08;;
46721;SDS011;32455;43.430;23.136;2024-03-29T14:51:40;5.70;;;1.50;;
46721;SDS011;32455;43.430;23.136;2024-03-29T14:54:26;4.28;;;1.27;;
46721;SDS011;32455;43.430;23.136;2024-03-29T14:57:11;6.85;;;1.38;;
46721;SDS011;32455;43.430;23.136;2024-03-29T14:59:57;5.25;;;1.42;;
46721;SDS011;32455;43.430;23.136;2024-03-29T15:02:43;3.25;;;1.33;;
46721;SDS011;32455;43.430;23.136;2024-03-29T15:05:30;7.50;;;1.80;;
46721;SDS011;32455;43.430;23.136;2024-03-29T15:08:16;5.10;;;1.58;;
46721;SDS011;32455;43.430;23.136;2024-03-29T15:11:02;5.22;;;1.27;;
46721;SDS011;32455;43.430;23.136;2024-03-29T15:13:47;7.07;;;1.60;;
46721;SDS011;32455;43.430;23.136;2024-03-29T15:16:32;7.03;;;1.90;;
46721;SDS011;32455;43.430;23.136;2024-03-29T15:19:17;3.92;;;1.45;;
46721;SDS011;32455;43.430;23.136;2024-03-29T15:22:03;5.82;;;1.50;;
46721;SDS011;32455;43.430;23.136;2024-03-29T15:24:48;4.60;;;1.40;;
46721;SDS011;32455;43.430;23.136;2024-03-29T15:27:34;5.90;;;1.75;;
46721;SDS011;32455;43.430;23.136;2024-03-29T15:30:38;5.28;;;1.48;;
46721;SDS011;32455;43.430;23.136;2024-03-29T15:33:28;8.48;;;2.17;;
46721;SDS011;32455;43.430;23.136;2024-03-29T15:36:13;6.13;;;2.38;;
46721;SDS011;32455;43.430;23.136;2024-03-29T15:38:59;3.78;;;1.75;;
46721;SDS011;32455;43.430;23.136;2024-03-29T15:41:49;6.57;;;1.75;;
46721;SDS011;32455;43.430;23.136;2024-03-29T15:44:35;5.18;;;2.65;;
46721;SDS011;32455;43.430;23.136;2024-03-29T15:47:20;5.40;;;2.42;;
46721;SDS011;32455;43.430;23.136;2024-03-29T15:50:06;7.68;;;2.42;;
46721;SDS011;32455;43.430;23.136;2024-03-29T15:52:51;7.30;;;2.17;;
46721;SDS011;32455;43.430;23.136;2024-03-29T15:55:36;5.15;;;1.70;;
46721;SDS011;32455;43.430;23.136;2024-03-29T15:58:22;3.50;;;1.40;;
46721;SDS011;32455;43.430;23.136;2024-03-29T16:01:07;5.57;;;1.75;;
46721;SDS011;32455;43.430;23.136;2024-03-29T16:03:54;10.45;;;2.50;;
46721;SDS011;32455;43.430;23.136;2024-03-29T16:06:39;8.85;;;3.08;;
46721;SDS011;32455;43.430;23.136;2024-03-29T16:09:25;9.20;;;3.30;;
46721;SDS011;32455;43.430;23.136;2024-03-29T16:12:11;7.70;;;2.42;;
46721;SDS011;32455;43.430;23.136;2024-03-29T16:14:56;7.82;;;2.13;;
46721;SDS011;32455;43.430;23.136;2024-03-29T16:17:41;8.55;;;2.47;;
46721;SDS011;32455;43.430;23.136;2024-03-29T16:20:27;6.68;;;1.90;;
46721;SDS011;32455;43.430;23.136;2024-03-29T16:23:12;7.22;;;2.20;;
46721;SDS011;32455;43.430;23.136;2024-03-29T16:25:58;6.00;;;1.77;;
46721;SDS011;32455;43.430;23.136;2024-03-29T16:28:43;6.15;;;1.50;;
46721;SDS011;32455;43.430;23.136;2024-03-29T16:31:29;8.18;;;1.50;;
46721;SDS011;32455;43.430;23.136;2024-03-29T16:34:14;4.60;;;1.60;;
46721;SDS011;32455;43.430;23.136;2024-03-29T16:37:01;4.45;;;1.60;;